Portada
METAR-TAF:

METAR-TAF

Aeropuertos :

Northern Maine Regional Airport at Presque Isle

Presque Isle, Maine, Estados Unidos

latitud: 46-41N, longitud: 068-03W, altitud: 163 m

Observación

El informe se hizo hace 1 hora y 3 minutos, a las 17:56 UTC
Viento 4 kt con dirección variable
Temperatura 28°C
Humedad 37%
Presión 1021 hPa
Visibilidad: 14.5 km
Cielo despejado

METAR: KPQI 211756Z AUTO VRB04KT 9SM CLR 28/12 A3016 RMK AO2 SLP246 T02830117 10289 20194 56012

Hora: 14:59 (18:59 UTC)

Pronóstico

El informe se hizo hace 1 hora y 39 minutos, a las 17:20 UTC
Pronóstico válido del 21 a las 18 UTC al 22 a las 18 UTC
Viento 5 kt del sureste
Visibilidad: 10 km
Cielo despejado
A partir de las 22 a las 1600 UTC
Viento 6 kt del sureste
Visibilidad: 10 km
Cielo nuboso a una altura de 6000 ft
chaparrones en las proximidades

TAF: KPQI 211720Z 2118/2218 14005KT P6SM SKC FM221600 14006KT P6SM VCSH BKN060

Observaciones y pronósticos meteorológicos de más de 4000 aeropuertos (mensajes METAR y TAF).

Los puntos amarillos y rojos representan las estaciones disponibles.

Ponga el ratón en el punto deseado para ver el nombre de la estación.

Haga clic para ver las observaciones y los pronósticos meteorológicos.

Para cambiar el mapa : haga clic en los botones verdes con una cruz de color negro para hacer un zoom, en el botón verde con un guión para alejar o en las flechas verdes para mapas adyacentes.


METAR-TAF: